sensor_id;sensor_type;location;lat;lon;timestamp;temperature;humidity
75821;DHT22;64454;51.984;9.838;2023-08-01T00:01:54;18.90;99.90
75821;DHT22;64454;51.984;9.838;2023-08-01T00:04:21;18.80;99.90
75821;DHT22;64454;51.984;9.838;2023-08-01T00:06:48;18.90;99.90
75821;DHT22;64454;51.984;9.838;2023-08-01T00:09:16;18.90;99.90
75821;DHT22;64454;51.984;9.838;2023-08-01T00:11:45;18.90;99.90
75821;DHT22;64454;51.984;9.838;2023-08-01T00:14:12;18.80;99.90
75821;DHT22;64454;51.984;9.838;2023-08-01T00:16:40;18.80;99.90
75821;DHT22;64454;51.984;9.838;2023-08-01T00:19:07;18.70;99.90
75821;DHT22;64454;51.984;9.838;2023-08-01T00:21:34;18.60;99.90
75821;DHT22;64454;51.984;9.838;2023-08-01T00:24:02;18.40;99.90
75821;DHT22;64454;51.984;9.838;2023-08-01T00:26:29;18.40;99.90
75821;DHT22;64454;51.984;9.838;2023-08-01T00:28:56;18.40;99.90
75821;DHT22;64454;51.984;9.838;2023-08-01T00:31:22;18.40;99.90
75821;DHT22;64454;51.984;9.838;2023-08-01T00:33:51;18.40;99.90
75821;DHT22;64454;51.984;9.838;2023-08-01T00:36:17;18.50;99.90
75821;DHT22;64454;51.984;9.838;2023-08-01T00:38:44;18.60;99.90
75821;DHT22;64454;51.984;9.838;2023-08-01T00:41:12;18.70;99.90
75821;DHT22;64454;51.984;9.838;2023-08-01T00:43:39;18.80;99.90
75821;DHT22;64454;51.984;9.838;2023-08-01T00:46:06;18.80;99.90
75821;DHT22;64454;51.984;9.838;2023-08-01T00:48:35;18.80;99.90
75821;DHT22;64454;51.984;9.838;2023-08-01T00:51:05;18.70;99.90
75821;DHT22;64454;51.984;9.838;2023-08-01T00:53:34;18.70;99.90
75821;DHT22;64454;51.984;9.838;2023-08-01T00:56:02;18.60;99.90
75821;DHT22;64454;51.984;9.838;2023-08-01T00:58:30;18.60;99.90
75821;DHT22;64454;51.984;9.838;2023-08-01T01:00:57;18.60;99.90
75821;DHT22;64454;51.984;9.838;2023-08-01T01:03:25;18.60;99.90
75821;DHT22;64454;51.984;9.838;2023-08-01T01:05:56;18.60;99.90
75821;DHT22;64454;51.984;9.838;2023-08-01T01:08:29;18.80;99.90
75821;DHT22;64454;51.984;9.838;2023-08-01T01:10:56;18.90;99.90
75821;DHT22;64454;51.984;9.838;2023-08-01T01:13:23;19.00;99.90
75821;DHT22;64454;51.984;9.838;2023-08-01T01:15:50;19.00;99.90
75821;DHT22;64454;51.984;9.838;2023-08-01T01:18:19;19.00;99.90
75821;DHT22;64454;51.984;9.838;2023-08-01T01:20:47;19.00;99.90
75821;DHT22;64454;51.984;9.838;2023-08-01T01:23:15;19.10;99.90
75821;DHT22;64454;51.984;9.838;2023-08-01T01:25:43;19.10;99.90
75821;DHT22;64454;51.984;9.838;2023-08-01T01:28:13;19.10;99.90
75821;DHT22;64454;51.984;9.838;2023-08-01T01:30:42;19.00;99.90
75821;DHT22;64454;51.984;9.838;2023-08-01T01:33:10;18.90;99.90
75821;DHT22;64454;51.984;9.838;2023-08-01T01:35:37;18.70;99.90
75821;DHT22;64454;51.984;9.838;2023-08-01T01:38:05;18.70;99.90
75821;DHT22;64454;51.984;9.838;2023-08-01T01:40:33;18.70;99.90
75821;DHT22;64454;51.984;9.838;2023-08-01T01:43:01;18.80;99.90
75821;DHT22;64454;51.984;9.838;2023-08-01T01:45:28;18.70;99.90
75821;DHT22;64454;51.984;9.838;2023-08-01T01:47:55;18.60;99.90
75821;DHT22;64454;51.984;9.838;2023-08-01T01:50:22;18.60;99.90
75821;DHT22;64454;51.984;9.838;2023-08-01T01:52:48;18.50;99.90
75821;DHT22;64454;51.984;9.838;2023-08-01T01:55:17;18.40;99.90
75821;DHT22;64454;51.984;9.838;2023-08-01T01:57:44;18.40;99.90
75821;DHT22;64454;51.984;9.838;2023-08-01T02:00:12;18.30;99.90
75821;DHT22;64454;51.984;9.838;2023-08-01T02:02:39;18.30;99.90
75821;DHT22;64454;51.984;9.838;2023-08-01T02:05:06;18.30;99.90
75821;DHT22;64454;51.984;9.838;2023-08-01T02:07:33;18.20;99.90
75821;DHT22;64454;51.984;9.838;2023-08-01T02:10:00;18.30;99.90
75821;DHT22;64454;51.984;9.838;2023-08-01T02:12:29;18.30;99.90
75821;DHT22;64454;51.984;9.838;2023-08-01T02:14:57;18.40;99.90
75821;DHT22;64454;51.984;9.838;2023-08-01T02:17:24;18.20;99.90
75821;DHT22;64454;51.984;9.838;2023-08-01T02:19:51;18.20;99.90
75821;DHT22;64454;51.984;9.838;2023-08-01T02:22:18;18.20;99.90
75821;DHT22;64454;51.984;9.838;2023-08-01T02:24:46;18.30;99.90
75821;DHT22;64454;51.984;9.838;2023-08-01T02:27:13;18.30;99.90
75821;DHT22;64454;51.984;9.838;2023-08-01T02:29:41;18.30;99.90
75821;DHT22;64454;51.984;9.838;2023-08-01T02:32:09;18.30;99.90
75821;DHT22;64454;51.984;9.838;2023-08-01T02:34:37;18.30;99.90
75821;DHT22;64454;51.984;9.838;2023-08-01T02:37:04;18.40;99.90
75821;DHT22;64454;51.984;9.838;2023-08-01T02:39:31;18.40;99.90
75821;DHT22;64454;51.984;9.838;2023-08-01T02:41:58;18.30;99.90
75821;DHT22;64454;51.984;9.838;2023-08-01T02:44:26;18.40;99.90
75821;DHT22;64454;51.984;9.838;2023-08-01T02:46:54;18.50;99.90
75821;DHT22;64454;51.984;9.838;2023-08-01T02:49:21;18.50;99.90
75821;DHT22;64454;51.984;9.838;2023-08-01T02:51:48;18.50;99.90
75821;DHT22;64454;51.984;9.838;2023-08-01T02:54:16;18.50;99.90
75821;DHT22;64454;51.984;9.838;2023-08-01T02:56:45;18.50;99.90
75821;DHT22;64454;51.984;9.838;2023-08-01T02:59:12;18.60;99.90
75821;DHT22;64454;51.984;9.838;2023-08-01T03:01:39;18.70;99.90
75821;DHT22;64454;51.984;9.838;2023-08-01T03:04:08;18.70;99.90
75821;DHT22;64454;51.984;9.838;2023-08-01T03:06:37;18.80;99.90
75821;DHT22;64454;51.984;9.838;2023-08-01T03:09:04;18.80;99.90
75821;DHT22;64454;51.984;9.838;2023-08-01T03:11:33;18.90;99.90
75821;DHT22;64454;51.984;9.838;2023-08-01T03:14:01;19.00;99.90
75821;DHT22;64454;51.984;9.838;2023-08-01T03:16:30;19.10;99.90
75821;DHT22;64454;51.984;9.838;2023-08-01T03:18:57;19.10;99.90
75821;DHT22;64454;51.984;9.838;2023-08-01T03:21:27;19.10;99.90
75821;DHT22;64454;51.984;9.838;2023-08-01T03:23:54;19.20;99.90
75821;DHT22;64454;51.984;9.838;2023-08-01T03:26:21;19.00;99.90
75821;DHT22;64454;51.984;9.838;2023-08-01T03:28:48;19.10;99.90
75821;DHT22;64454;51.984;9.838;2023-08-01T03:31:15;19.10;99.90
75821;DHT22;64454;51.984;9.838;2023-08-01T03:33:42;19.20;99.90
75821;DHT22;64454;51.984;9.838;2023-08-01T03:36:08;19.20;99.90
75821;DHT22;64454;51.984;9.838;2023-08-01T03:38:37;19.30;99.90
75821;DHT22;64454;51.984;9.838;2023-08-01T03:41:04;19.30;99.90
75821;DHT22;64454;51.984;9.838;2023-08-01T03:43:31;19.30;99.90
75821;DHT22;64454;51.984;9.838;2023-08-01T03:45:58;19.30;99.90
75821;DHT22;64454;51.984;9.838;2023-08-01T03:48:25;19.30;99.90
75821;DHT22;64454;51.984;9.838;2023-08-01T03:50:52;19.40;99.90
75821;DHT22;64454;51.984;9.838;2023-08-01T03:53:19;19.40;99.90
75821;DHT22;64454;51.984;9.838;2023-08-01T03:55:48;19.50;99.90
75821;DHT22;64454;51.984;9.838;2023-08-01T03:58:15;19.60;99.90
75821;DHT22;64454;51.984;9.838;2023-08-01T04:00:42;19.60;99.90
75821;DHT22;64454;51.984;9.838;2023-08-01T04:03:09;19.70;99.90
75821;DHT22;64454;51.984;9.838;2023-08-01T04:05:35;19.70;99.90
75821;DHT22;64454;51.984;9.838;2023-08-01T04:08:03;19.50;99.90
75821;DHT22;64454;51.984;9.838;2023-08-01T04:10:30;19.40;99.90
75821;DHT22;64454;51.984;9.838;2023-08-01T04:12:58;19.40;99.90
75821;DHT22;64454;51.984;9.838;2023-08-01T04:15:25;19.40;99.90
75821;DHT22;64454;51.984;9.838;2023-08-01T04:17:52;19.40;99.90
75821;DHT22;64454;51.984;9.838;2023-08-01T04:20:19;19.40;99.90
75821;DHT22;64454;51.984;9.838;2023-08-01T04:22:46;19.40;99.90
75821;DHT22;64454;51.984;9.838;2023-08-01T04:25:13;19.40;99.90
75821;DHT22;64454;51.984;9.838;2023-08-01T04:27:40;19.50;99.90
75821;DHT22;64454;51.984;9.838;2023-08-01T04:30:09;19.50;99.90
75821;DHT22;64454;51.984;9.838;2023-08-01T04:32:36;19.60;99.90
75821;DHT22;64454;51.984;9.838;2023-08-01T04:35:04;19.60;99.90
75821;DHT22;64454;51.984;9.838;2023-08-01T04:37:32;19.70;99.90
75821;DHT22;64454;51.984;9.838;2023-08-01T04:39:59;19.70;99.90
75821;DHT22;64454;51.984;9.838;2023-08-01T04:42:26;19.80;99.90
75821;DHT22;64454;51.984;9.838;2023-08-01T04:44:54;19.80;99.90
75821;DHT22;64454;51.984;9.838;2023-08-01T04:47:23;19.80;99.90
75821;DHT22;64454;51.984;9.838;2023-08-01T04:49:50;19.80;99.90
75821;DHT22;64454;51.984;9.838;2023-08-01T04:52:17;19.90;99.90
75821;DHT22;64454;51.984;9.838;2023-08-01T04:54:44;19.90;99.90
75821;DHT22;64454;51.984;9.838;2023-08-01T04:57:11;19.90;99.90
75821;DHT22;64454;51.984;9.838;2023-08-01T04:59:38;19.90;99.90
75821;DHT22;64454;51.984;9.838;2023-08-01T05:02:05;19.90;99.90
75821;DHT22;64454;51.984;9.838;2023-08-01T05:04:33;19.90;99.90
75821;DHT22;64454;51.984;9.838;2023-08-01T05:07:00;19.80;99.90
75821;DHT22;64454;51.984;9.838;2023-08-01T05:09:27;19.70;99.90
75821;DHT22;64454;51.984;9.838;2023-08-01T05:11:54;19.70;99.90
75821;DHT22;64454;51.984;9.838;2023-08-01T05:14:21;19.70;99.90
75821;DHT22;64454;51.984;9.838;2023-08-01T05:16:48;19.70;99.90
75821;DHT22;64454;51.984;9.838;2023-08-01T05:19:17;19.50;99.90
75821;DHT22;64454;51.984;9.838;2023-08-01T05:21:47;19.50;99.90
75821;DHT22;64454;51.984;9.838;2023-08-01T05:24:15;19.60;99.90
75821;DHT22;64454;51.984;9.838;2023-08-01T05:26:44;19.40;99.90
75821;DHT22;64454;51.984;9.838;2023-08-01T05:29:11;19.20;99.90
75821;DHT22;64454;51.984;9.838;2023-08-01T05:31:38;19.20;99.90
75821;DHT22;64454;51.984;9.838;2023-08-01T05:34:05;19.20;99.90
75821;DHT22;64454;51.984;9.838;2023-08-01T05:36:32;19.00;99.90
75821;DHT22;64454;51.984;9.838;2023-08-01T05:39:00;19.10;99.90
75821;DHT22;64454;51.984;9.838;2023-08-01T05:41:27;19.10;99.90
75821;DHT22;64454;51.984;9.838;2023-08-01T05:43:54;19.20;99.90
75821;DHT22;64454;51.984;9.838;2023-08-01T05:46:21;19.10;99.90
75821;DHT22;64454;51.984;9.838;2023-08-01T05:48:48;19.20;99.90
75821;DHT22;64454;51.984;9.838;2023-08-01T05:51:15;19.30;99.90
75821;DHT22;64454;51.984;9.838;2023-08-01T05:53:41;19.30;99.90
75821;DHT22;64454;51.984;9.838;2023-08-01T05:56:10;19.50;99.90
75821;DHT22;64454;51.984;9.838;2023-08-01T05:58:37;19.50;99.90
75821;DHT22;64454;51.984;9.838;2023-08-01T06:01:05;19.60;99.90
75821;DHT22;64454;51.984;9.838;2023-08-01T06:03:32;19.70;99.90
75821;DHT22;64454;51.984;9.838;2023-08-01T06:05:59;19.80;99.90
75821;DHT22;64454;51.984;9.838;2023-08-01T06:08:26;19.80;99.90
75821;DHT22;64454;51.984;9.838;2023-08-01T06:10:53;19.90;99.90
75821;DHT22;64454;51.984;9.838;2023-08-01T06:13:22;19.90;99.90
75821;DHT22;64454;51.984;9.838;2023-08-01T06:15:49;19.90;99.90
75821;DHT22;64454;51.984;9.838;2023-08-01T06:18:15;19.70;99.90
75821;DHT22;64454;51.984;9.838;2023-08-01T06:20:42;19.70;99.90
75821;DHT22;64454;51.984;9.838;2023-08-01T06:23:09;19.60;99.90
75821;DHT22;64454;51.984;9.838;2023-08-01T06:25:36;19.60;99.90
75821;DHT22;64454;51.984;9.838;2023-08-01T06:28:03;19.50;99.90
75821;DHT22;64454;51.984;9.838;2023-08-01T06:30:32;19.60;99.90
75821;DHT22;64454;51.984;9.838;2023-08-01T06:32:59;19.60;99.90
75821;DHT22;64454;51.984;9.838;2023-08-01T06:35:26;19.50;99.90
75821;DHT22;64454;51.984;9.838;2023-08-01T06:37:52;19.30;99.90
75821;DHT22;64454;51.984;9.838;2023-08-01T06:40:20;19.40;99.90
75821;DHT22;64454;51.984;9.838;2023-08-01T06:42:47;19.40;99.90
75821;DHT22;64454;51.984;9.838;2023-08-01T06:45:14;19.30;99.90
75821;DHT22;64454;51.984;9.838;2023-08-01T06:47:42;19.40;99.90
75821;DHT22;64454;51.984;9.838;2023-08-01T06:50:09;19.30;99.90
75821;DHT22;64454;51.984;9.838;2023-08-01T06:52:36;19.30;99.90
75821;DHT22;64454;51.984;9.838;2023-08-01T06:55:04;19.20;99.90
75821;DHT22;64454;51.984;9.838;2023-08-01T06:57:31;19.30;99.90
75821;DHT22;64454;51.984;9.838;2023-08-01T06:59:58;19.20;99.90
75821;DHT22;64454;51.984;9.838;2023-08-01T07:02:25;19.20;99.90
75821;DHT22;64454;51.984;9.838;2023-08-01T07:04:54;19.00;99.90
75821;DHT22;64454;51.984;9.838;2023-08-01T07:07:21;19.00;99.90
75821;DHT22;64454;51.984;9.838;2023-08-01T07:09:47;18.70;99.90
75821;DHT22;64454;51.984;9.838;2023-08-01T07:12:14;18.90;99.90
75821;DHT22;64454;51.984;9.838;2023-08-01T07:14:41;19.00;99.90
75821;DHT22;64454;51.984;9.838;2023-08-01T07:17:09;19.00;99.90
75821;DHT22;64454;51.984;9.838;2023-08-01T07:19:36;19.00;99.90
75821;DHT22;64454;51.984;9.838;2023-08-01T07:22:04;19.20;99.90
75821;DHT22;64454;51.984;9.838;2023-08-01T07:24:31;19.40;99.90
75821;DHT22;64454;51.984;9.838;2023-08-01T07:26:58;19.50;99.90
75821;DHT22;64454;51.984;9.838;2023-08-01T07:29:25;19.40;99.90
75821;DHT22;64454;51.984;9.838;2023-08-01T07:31:52;19.30;99.90
75821;DHT22;64454;51.984;9.838;2023-08-01T07:34:20;19.50;99.90
75821;DHT22;64454;51.984;9.838;2023-08-01T07:36:48;19.40;99.90
75821;DHT22;64454;51.984;9.838;2023-08-01T07:39:18;19.40;99.90
75821;DHT22;64454;51.984;9.838;2023-08-01T07:41:47;19.20;99.90
75821;DHT22;64454;51.984;9.838;2023-08-01T07:44:15;19.20;99.90
75821;DHT22;64454;51.984;9.838;2023-08-01T07:46:43;19.00;99.90
75821;DHT22;64454;51.984;9.838;2023-08-01T07:49:10;19.20;99.90
75821;DHT22;64454;51.984;9.838;2023-08-01T07:51:37;19.20;99.90
75821;DHT22;64454;51.984;9.838;2023-08-01T07:54:04;19.40;99.90
75821;DHT22;64454;51.984;9.838;2023-08-01T07:56:33;19.60;99.90
75821;DHT22;64454;51.984;9.838;2023-08-01T07:59:00;19.70;99.90
75821;DHT22;64454;51.984;9.838;2023-08-01T08:01:27;19.80;87.60
75821;DHT22;64454;51.984;9.838;2023-08-01T08:03:54;19.90;69.60
75821;DHT22;64454;51.984;9.838;2023-08-01T08:06:21;19.80;38.80
75821;DHT22;64454;51.984;9.838;2023-08-01T08:08:49;19.70;29.10
75821;DHT22;64454;51.984;9.838;2023-08-01T08:11:16;19.80;27.70
75821;DHT22;64454;51.984;9.838;2023-08-01T08:13:44;19.80;51.30
75821;DHT22;64454;51.984;9.838;2023-08-01T08:16:11;19.90;35.00
75821;DHT22;64454;51.984;9.838;2023-08-01T08:18:38;20.00;27.30
75821;DHT22;64454;51.984;9.838;2023-08-01T08:21:05;20.40;36.90
75821;DHT22;64454;51.984;9.838;2023-08-01T08:23:32;20.60;1.00
75821;DHT22;64454;51.984;9.838;2023-08-01T08:25:59;20.70;1.00
75821;DHT22;64454;51.984;9.838;2023-08-01T08:28:30;21.00;8.10
75821;DHT22;64454;51.984;9.838;2023-08-01T08:31:00;21.20;1.00
75821;DHT22;64454;51.984;9.838;2023-08-01T08:33:28;21.20;1.00
75821;DHT22;64454;51.984;9.838;2023-08-01T08:35:56;21.60;1.00
75821;DHT22;64454;51.984;9.838;2023-08-01T08:38:23;21.80;1.00
75821;DHT22;64454;51.984;9.838;2023-08-01T08:40:55;21.70;1.00
75821;DHT22;64454;51.984;9.838;2023-08-01T08:43:31;21.70;1.00
75821;DHT22;64454;51.984;9.838;2023-08-01T08:46:02;21.90;1.00
75821;DHT22;64454;51.984;9.838;2023-08-01T08:48:30;21.90;1.00
75821;DHT22;64454;51.984;9.838;2023-08-01T08:51:00;21.80;1.00
75821;DHT22;64454;51.984;9.838;2023-08-01T08:53:30;22.10;1.00
75821;DHT22;64454;51.984;9.838;2023-08-01T08:55:58;22.40;1.00
75821;DHT22;64454;51.984;9.838;2023-08-01T08:58:26;22.40;1.00
75821;DHT22;64454;51.984;9.838;2023-08-01T09:00:53;22.30;1.00
75821;DHT22;64454;51.984;9.838;2023-08-01T09:03:21;21.90;1.00
75821;DHT22;64454;51.984;9.838;2023-08-01T09:05:50;21.70;1.00
75821;DHT22;64454;51.984;9.838;2023-08-01T09:08:21;21.60;1.00
75821;DHT22;64454;51.984;9.838;2023-08-01T09:10:50;21.30;1.00
75821;DHT22;64454;51.984;9.838;2023-08-01T09:13:18;21.10;1.00
75821;DHT22;64454;51.984;9.838;2023-08-01T09:15:46;21.20;1.00
75821;DHT22;64454;51.984;9.838;2023-08-01T09:18:13;21.20;1.00
75821;DHT22;64454;51.984;9.838;2023-08-01T09:20:42;21.40;1.00
75821;DHT22;64454;51.984;9.838;2023-08-01T09:23:12;21.50;1.00
75821;DHT22;64454;51.984;9.838;2023-08-01T09:25:40;21.90;1.00
75821;DHT22;64454;51.984;9.838;2023-08-01T09:28:17;22.50;1.00
75821;DHT22;64454;51.984;9.838;2023-08-01T09:30:47;22.80;1.00
75821;DHT22;64454;51.984;9.838;2023-08-01T09:33:15;22.80;1.00
75821;DHT22;64454;51.984;9.838;2023-08-01T09:35:44;23.00;1.00
75821;DHT22;64454;51.984;9.838;2023-08-01T09:38:12;23.40;1.00
75821;DHT22;64454;51.984;9.838;2023-08-01T09:40:41;23.60;1.00
75821;DHT22;64454;51.984;9.838;2023-08-01T09:43:10;23.60;1.00
75821;DHT22;64454;51.984;9.838;2023-08-01T09:45:37;23.70;1.00
75821;DHT22;64454;51.984;9.838;2023-08-01T09:48:04;23.70;1.00
75821;DHT22;64454;51.984;9.838;2023-08-01T09:50:32;23.80;1.00
75821;DHT22;64454;51.984;9.838;2023-08-01T09:53:10;23.60;1.00
75821;DHT22;64454;51.984;9.838;2023-08-01T09:55:37;23.80;1.00
75821;DHT22;64454;51.984;9.838;2023-08-01T09:58:07;23.90;1.00
75821;DHT22;64454;51.984;9.838;2023-08-01T10:00:36;23.90;1.00
75821;DHT22;64454;51.984;9.838;2023-08-01T10:03:03;23.90;1.00
75821;DHT22;64454;51.984;9.838;2023-08-01T10:05:31;24.20;1.00
75821;DHT22;64454;51.984;9.838;2023-08-01T10:08:02;24.30;1.00
75821;DHT22;64454;51.984;9.838;2023-08-01T10:10:30;24.80;1.00
75821;DHT22;64454;51.984;9.838;2023-08-01T10:12:59;25.10;1.00
75821;DHT22;64454;51.984;9.838;2023-08-01T10:15:29;25.30;1.00
75821;DHT22;64454;51.984;9.838;2023-08-01T10:17:57;25.50;1.00
75821;DHT22;64454;51.984;9.838;2023-08-01T10:20:24;25.60;1.00
75821;DHT22;64454;51.984;9.838;2023-08-01T10:22:53;25.90;1.00
75821;DHT22;64454;51.984;9.838;2023-08-01T10:25:20;25.70;1.00
75821;DHT22;64454;51.984;9.838;2023-08-01T10:27:59;25.80;1.00
75821;DHT22;64454;51.984;9.838;2023-08-01T10:30:27;25.30;1.00
75821;DHT22;64454;51.984;9.838;2023-08-01T10:32:55;24.70;1.00
75821;DHT22;64454;51.984;9.838;2023-08-01T10:35:33;24.50;1.00
75821;DHT22;64454;51.984;9.838;2023-08-01T10:38:05;24.00;1.00
75821;DHT22;64454;51.984;9.838;2023-08-01T10:40:35;23.40;1.00
75821;DHT22;64454;51.984;9.838;2023-08-01T10:43:04;23.00;1.00
75821;DHT22;64454;51.984;9.838;2023-08-01T10:45:31;22.70;1.00
75821;DHT22;64454;51.984;9.838;2023-08-01T10:48:08;22.50;1.00
75821;DHT22;64454;51.984;9.838;2023-08-01T10:50:36;22.40;1.00
75821;DHT22;64454;51.984;9.838;2023-08-01T10:53:05;22.40;1.00
75821;DHT22;64454;51.984;9.838;2023-08-01T10:55:40;22.40;1.00
75821;DHT22;64454;51.984;9.838;2023-08-01T10:58:10;22.50;1.00
75821;DHT22;64454;51.984;9.838;2023-08-01T11:00:38;22.60;1.00
75821;DHT22;64454;51.984;9.838;2023-08-01T11:03:05;22.80;1.00
75821;DHT22;64454;51.984;9.838;2023-08-01T11:05:32;23.10;1.00
75821;DHT22;64454;51.984;9.838;2023-08-01T11:08:00;23.20;1.00
75821;DHT22;64454;51.984;9.838;2023-08-01T11:10:30;23.70;1.00
75821;DHT22;64454;51.984;9.838;2023-08-01T11:12:59;24.10;1.00
75821;DHT22;64454;51.984;9.838;2023-08-01T11:15:28;24.30;1.00
75821;DHT22;64454;51.984;9.838;2023-08-01T11:17:55;24.10;1.00
75821;DHT22;64454;51.984;9.838;2023-08-01T11:20:24;23.80;1.00
75821;DHT22;64454;51.984;9.838;2023-08-01T11:22:54;24.00;1.00
75821;DHT22;64454;51.984;9.838;2023-08-01T11:25:35;23.80;1.00
75821;DHT22;64454;51.984;9.838;2023-08-01T11:28:05;23.60;1.00
75821;DHT22;64454;51.984;9.838;2023-08-01T11:30:35;23.80;1.00
75821;DHT22;64454;51.984;9.838;2023-08-01T11:33:13;23.90;1.00
75821;DHT22;64454;51.984;9.838;2023-08-01T11:35:41;24.10;1.00
75821;DHT22;64454;51.984;9.838;2023-08-01T11:38:08;24.10;1.00
75821;DHT22;64454;51.984;9.838;2023-08-01T11:40:36;24.40;1.00
75821;DHT22;64454;51.984;9.838;2023-08-01T11:43:04;24.50;1.00
75821;DHT22;64454;51.984;9.838;2023-08-01T11:45:31;24.90;1.00
75821;DHT22;64454;51.984;9.838;2023-08-01T11:47:59;25.00;1.00
75821;DHT22;64454;51.984;9.838;2023-08-01T11:50:26;25.30;1.00
75821;DHT22;64454;51.984;9.838;2023-08-01T11:52:53;25.70;1.00
75821;DHT22;64454;51.984;9.838;2023-08-01T11:55:22;25.60;1.00
75821;DHT22;64454;51.984;9.838;2023-08-01T11:57:54;25.60;1.00
75821;DHT22;64454;51.984;9.838;2023-08-01T12:00:22;25.80;1.00
75821;DHT22;64454;51.984;9.838;2023-08-01T12:02:50;25.60;1.00
75821;DHT22;64454;51.984;9.838;2023-08-01T12:05:23;25.40;1.00
75821;DHT22;64454;51.984;9.838;2023-08-01T12:07:51;24.70;1.00
75821;DHT22;64454;51.984;9.838;2023-08-01T12:10:18;24.30;1.00
75821;DHT22;64454;51.984;9.838;2023-08-01T12:12:46;24.00;1.00
75821;DHT22;64454;51.984;9.838;2023-08-01T12:15:13;23.70;1.00
75821;DHT22;64454;51.984;9.838;2023-08-01T12:17:40;23.30;1.00
75821;DHT22;64454;51.984;9.838;2023-08-01T12:20:08;23.00;1.00
75821;DHT22;64454;51.984;9.838;2023-08-01T12:22:37;22.80;1.00
75821;DHT22;64454;51.984;9.838;2023-08-01T12:25:04;22.70;1.00
75821;DHT22;64454;51.984;9.838;2023-08-01T12:27:32;22.50;1.00
75821;DHT22;64454;51.984;9.838;2023-08-01T12:29:59;22.50;1.00
75821;DHT22;64454;51.984;9.838;2023-08-01T12:32:26;22.70;1.00
75821;DHT22;64454;51.984;9.838;2023-08-01T12:34:52;23.20;1.00
75821;DHT22;64454;51.984;9.838;2023-08-01T12:37:19;23.60;1.00
75821;DHT22;64454;51.984;9.838;2023-08-01T12:39:48;23.50;1.00
75821;DHT22;64454;51.984;9.838;2023-08-01T12:42:15;23.60;1.00
75821;DHT22;64454;51.984;9.838;2023-08-01T12:44:41;23.40;1.00
75821;DHT22;64454;51.984;9.838;2023-08-01T12:47:08;22.90;1.00
75821;DHT22;64454;51.984;9.838;2023-08-01T12:49:37;22.60;1.00
75821;DHT22;64454;51.984;9.838;2023-08-01T12:52:04;22.00;1.00
75821;DHT22;64454;51.984;9.838;2023-08-01T12:54:32;21.40;1.00
75821;DHT22;64454;51.984;9.838;2023-08-01T12:57:00;21.00;1.00
75821;DHT22;64454;51.984;9.838;2023-08-01T12:59:27;20.50;1.00
75821;DHT22;64454;51.984;9.838;2023-08-01T13:01:54;20.20;1.00
75821;DHT22;64454;51.984;9.838;2023-08-01T13:04:21;19.90;1.00
75821;DHT22;64454;51.984;9.838;2023-08-01T13:06:48;19.80;1.00
75821;DHT22;64454;51.984;9.838;2023-08-01T13:09:16;19.70;1.00
75821;DHT22;64454;51.984;9.838;2023-08-01T13:11:45;19.60;1.00
75821;DHT22;64454;51.984;9.838;2023-08-01T13:14:14;19.60;11.30
75821;DHT22;64454;51.984;9.838;2023-08-01T13:16:43;19.80;14.60
75821;DHT22;64454;51.984;9.838;2023-08-01T13:19:10;20.00;6.90
75821;DHT22;64454;51.984;9.838;2023-08-01T13:21:37;20.20;1.00
75821;DHT22;64454;51.984;9.838;2023-08-01T13:24:04;20.30;1.00
75821;DHT22;64454;51.984;9.838;2023-08-01T13:26:31;20.60;1.00
75821;DHT22;64454;51.984;9.838;2023-08-01T13:28:59;20.70;1.00
75821;DHT22;64454;51.984;9.838;2023-08-01T13:31:28;20.90;1.00
75821;DHT22;64454;51.984;9.838;2023-08-01T13:33:55;21.20;1.00
75821;DHT22;64454;51.984;9.838;2023-08-01T13:36:23;21.60;1.00
75821;DHT22;64454;51.984;9.838;2023-08-01T13:38:50;21.70;1.00
75821;DHT22;64454;51.984;9.838;2023-08-01T13:41:17;21.90;1.00
75821;DHT22;64454;51.984;9.838;2023-08-01T13:43:44;22.40;1.00
75821;DHT22;64454;51.984;9.838;2023-08-01T13:46:13;22.60;1.00
75821;DHT22;64454;51.984;9.838;2023-08-01T13:48:42;22.90;1.00
75821;DHT22;64454;51.984;9.838;2023-08-01T13:51:10;23.30;1.00
75821;DHT22;64454;51.984;9.838;2023-08-01T13:53:37;23.50;1.00
75821;DHT22;64454;51.984;9.838;2023-08-01T13:56:06;23.80;1.00
75821;DHT22;64454;51.984;9.838;2023-08-01T13:58:33;24.00;1.00
75821;DHT22;64454;51.984;9.838;2023-08-01T14:01:02;24.00;1.00
75821;DHT22;64454;51.984;9.838;2023-08-01T14:03:29;23.80;1.00
75821;DHT22;64454;51.984;9.838;2023-08-01T14:06:03;23.60;1.00
75821;DHT22;64454;51.984;9.838;2023-08-01T14:08:31;23.40;1.00
75821;DHT22;64454;51.984;9.838;2023-08-01T14:10:58;22.70;1.00
75821;DHT22;64454;51.984;9.838;2023-08-01T14:13:25;22.30;1.00
75821;DHT22;64454;51.984;9.838;2023-08-01T14:15:52;21.70;1.00
75821;DHT22;64454;51.984;9.838;2023-08-01T14:18:19;21.10;1.00
75821;DHT22;64454;51.984;9.838;2023-08-01T14:20:46;20.90;1.00
75821;DHT22;64454;51.984;9.838;2023-08-01T14:23:14;20.60;1.00
75821;DHT22;64454;51.984;9.838;2023-08-01T14:25:41;20.30;1.00
75821;DHT22;64454;51.984;9.838;2023-08-01T14:28:09;20.20;1.00
75821;DHT22;64454;51.984;9.838;2023-08-01T14:30:37;19.90;1.00
75821;DHT22;64454;51.984;9.838;2023-08-01T14:33:05;19.70;1.00
75821;DHT22;64454;51.984;9.838;2023-08-01T14:35:34;19.60;1.00
75821;DHT22;64454;51.984;9.838;2023-08-01T14:38:01;19.50;1.00
75821;DHT22;64454;51.984;9.838;2023-08-01T14:40:30;19.40;12.40
75821;DHT22;64454;51.984;9.838;2023-08-01T14:42:57;19.50;26.70
75821;DHT22;64454;51.984;9.838;2023-08-01T14:45:24;19.40;1.00
75821;DHT22;64454;51.984;9.838;2023-08-01T14:47:51;19.60;15.60
75821;DHT22;64454;51.984;9.838;2023-08-01T14:50:18;19.70;5.40
75821;DHT22;64454;51.984;9.838;2023-08-01T14:52:45;19.90;1.00
75821;DHT22;64454;51.984;9.838;2023-08-01T14:55:12;20.10;1.00
75821;DHT22;64454;51.984;9.838;2023-08-01T14:57:41;20.50;1.00
75821;DHT22;64454;51.984;9.838;2023-08-01T15:00:08;20.90;1.00
75821;DHT22;64454;51.984;9.838;2023-08-01T15:02:36;21.30;1.00
75821;DHT22;64454;51.984;9.838;2023-08-01T15:05:03;21.60;1.00
75821;DHT22;64454;51.984;9.838;2023-08-01T15:07:31;21.90;1.00
75821;DHT22;64454;51.984;9.838;2023-08-01T15:09:57;22.10;1.00
75821;DHT22;64454;51.984;9.838;2023-08-01T15:12:25;22.20;1.00
75821;DHT22;64454;51.984;9.838;2023-08-01T15:14:53;22.40;1.00
75821;DHT22;64454;51.984;9.838;2023-08-01T15:17:20;22.60;1.00
75821;DHT22;64454;51.984;9.838;2023-08-01T15:19:48;22.80;1.00
75821;DHT22;64454;51.984;9.838;2023-08-01T15:22:15;23.00;1.00
75821;DHT22;64454;51.984;9.838;2023-08-01T15:24:43;23.10;1.00
75821;DHT22;64454;51.984;9.838;2023-08-01T15:27:11;23.50;1.00
75821;DHT22;64454;51.984;9.838;2023-08-01T15:29:38;23.60;1.00
75821;DHT22;64454;51.984;9.838;2023-08-01T15:32:07;23.90;1.00
75821;DHT22;64454;51.984;9.838;2023-08-01T15:34:34;24.20;1.00
75821;DHT22;64454;51.984;9.838;2023-08-01T15:37:01;24.60;1.00
75821;DHT22;64454;51.984;9.838;2023-08-01T15:39:28;24.60;1.00
75821;DHT22;64454;51.984;9.838;2023-08-01T15:41:55;24.40;1.00